MAPA DE AEROPUERTO

INFORMACIÓN METAR y TAF

METAR FOR LEMG
ADDS - METARS form results

(1326 UTC 23 January 2020)
Data provider http://aviationweather.gov/metar/data/
 
METAR text: LEMG 231300Z 30006KT 7000 FEW016 BKN025CB BKN040 11/09 Q1018 NOSIG
Conditions at: LEMG (MALAGA (CIV/MIL), ES) observed 1300 UTC 23 January 2020
Temperature: 11.0°C (52°F)
Dewpoint: 9.0°C (48°F) [RH = 87%]
Pressure (altimeter): 30.06 inches Hg (1018.0 mb)
Winds: from the WNW (300 degrees) at 7 MPH (6 knots; 3.1 m/s)
Visibility: 4 miles ( 7 km)
Ceiling: 2500 feet AGL
Clouds: few clouds at 1600 feet AGL
broken clouds at 2500 feet AGL
broken clouds at 4000 feet AGL
Weather: no significant weather observed at this time

METAR text: LEMG 231230Z VRB07G19KT 7000 VCTS FEW016 BKN025CB BKN040 11/09 Q1018 NOSIG
Conditions at: LEMG (MALAGA (CIV/MIL), ES) observed 1230 UTC 23 January 2020
Temperature: 11.0°C (52°F)
Dewpoint: 9.0°C (48°F) [RH = 87%]
Pressure (altimeter): 30.06 inches Hg (1018.0 mb)
Winds: variable direction winds at 8 MPH (7 knots; 3.6 m/s)
gusting to 22 MPH (19 knots; 9.8 m/s)
Visibility: 4 miles ( 7 km)
Ceiling: 2500 feet AGL
Clouds: few clouds at 1600 feet AGL
broken clouds at 2500 feet AGL
broken clouds at 4000 feet AGL
Weather: VCTS  (thunderstorm in vicinity)

Forecast for: LEMG (MALAGA (CIV/MIL), ES)
Text: TAF LEMG 231100Z 2312/2412 12008KT 9999 SCT025 BKN040 TX15/2314Z TN11/2406Z
Forecast period: 1200 UTC 23 January 2020 to 1200 UTC 24 January 2020
Forecast type: FROM: standard forecast or significant change
Winds: from the ESE (120 degrees) at 9 MPH (8 knots; 4.1 m/s)
Visibility: 6 or more miles 10+ km)
Ceiling: 4000 feet AGL
Clouds: scattered clouds at 2500 feet AGL
broken clouds at 4000 feet AGL
Weather: no significant weather forecast for this period
Text: PROB40
Forecast period: 1200 UTC 23 January 2020 to 1200 UTC 24 January 2020
Forecast type: TEMPORARY: The following changes expected for less than half the time period
Winds: from the E (100 degrees) at 21 MPH (18 knots; 9.3 m/s)
gusting to 34 MPH (30 knots; 15.4 m/s)
Visibility: 2.49 miles (4.01 km)
Ceiling: at least 12,000 feet AGL
Clouds: few clouds at 2000 feet AGL
Weather: SHRA  (rain showers)
Text: TEMPO 2312/2412 10018G30KT 4000 SHRA FEW020CB
Forecast period: 1200 to 2000 UTC 23 January 2020
Forecast type: TEMPORARY: The following changes expected for less than half the time period
Visibility: 1.86 miles (2.99 km)
Ceiling: 3000 feet AGL
Clouds: scattered clouds at 2000 feet AGL
broken clouds at 3000 feet AGL
Weather: TSRA  (rain associated with thunderstorm(s))
Text: PROB30
Forecast period: 0000 to 1000 UTC 24 January 2020
Forecast type: TEMPORARY: The following changes expected for less than half the time period
Visibility: 1.24 miles (2.00 km)
Ceiling: 600 feet AGL
Clouds: broken clouds at 600 feet AGL
Weather: RA BR  (moderate rain, mist)